sensor_id;sensor_type;location;lat;lon;timestamp;pressure;altitude;pressure_sealevel;temperature;humidity
10921;BME280;5513;50.580;8.818;2023-04-27T00:00:38;99265.16;;;8.25;100.00
10921;BME280;5513;50.580;8.818;2023-04-27T00:03:06;99261.28;;;8.32;100.00
10921;BME280;5513;50.580;8.818;2023-04-27T00:05:36;99265.38;;;8.38;100.00
10921;BME280;5513;50.580;8.818;2023-04-27T00:08:05;99258.63;;;8.32;100.00
10921;BME280;5513;50.580;8.818;2023-04-27T00:10:35;99258.78;;;8.29;100.00
10921;BME280;5513;50.580;8.818;2023-04-27T00:13:03;99248.16;;;8.31;100.00
10921;BME280;5513;50.580;8.818;2023-04-27T00:15:31;99251.75;;;8.30;100.00
10921;BME280;5513;50.580;8.818;2023-04-27T00:17:59;99247.63;;;8.24;100.00
10921;BME280;5513;50.580;8.818;2023-04-27T00:20:28;99245.56;;;8.29;100.00
10921;BME280;5513;50.580;8.818;2023-04-27T00:22:56;99246.00;;;8.22;100.00
10921;BME280;5513;50.580;8.818;2023-04-27T00:25:25;99244.88;;;8.43;100.00
10921;BME280;5513;50.580;8.818;2023-04-27T00:27:54;99242.94;;;8.29;100.00
10921;BME280;5513;50.580;8.818;2023-04-27T00:30:23;99237.44;;;8.34;100.00
10921;BME280;5513;50.580;8.818;2023-04-27T00:32:51;99231.38;;;8.32;100.00
10921;BME280;5513;50.580;8.818;2023-04-27T00:35:19;99237.53;;;8.32;100.00
10921;BME280;5513;50.580;8.818;2023-04-27T00:37:47;99236.53;;;8.35;100.00
10921;BME280;5513;50.580;8.818;2023-04-27T00:40:16;99235.78;;;8.16;100.00
10921;BME280;5513;50.580;8.818;2023-04-27T00:42:44;99228.38;;;8.22;100.00
10921;BME280;5513;50.580;8.818;2023-04-27T00:45:14;99227.53;;;8.22;100.00
10921;BME280;5513;50.580;8.818;2023-04-27T00:47:43;99235.19;;;8.11;100.00
10921;BME280;5513;50.580;8.818;2023-04-27T00:50:13;99235.22;;;8.09;100.00
10921;BME280;5513;50.580;8.818;2023-04-27T00:52:42;99236.16;;;8.08;100.00
10921;BME280;5513;50.580;8.818;2023-04-27T00:55:11;99236.06;;;8.10;100.00
10921;BME280;5513;50.580;8.818;2023-04-27T00:57:39;99233.44;;;8.10;100.00
10921;BME280;5513;50.580;8.818;2023-04-27T01:00:07;99234.56;;;8.06;100.00
10921;BME280;5513;50.580;8.818;2023-04-27T01:02:39;99238.81;;;8.08;100.00
10921;BME280;5513;50.580;8.818;2023-04-27T01:05:08;99239.19;;;8.00;100.00
10921;BME280;5513;50.580;8.818;2023-04-27T01:07:36;99245.13;;;7.88;100.00
10921;BME280;5513;50.580;8.818;2023-04-27T01:13:18;99250.56;;;7.85;100.00
10921;BME280;5513;50.580;8.818;2023-04-27T01:15:46;99248.38;;;7.76;100.00
10921;BME280;5513;50.580;8.818;2023-04-27T01:18:16;99248.38;;;7.76;100.00
10921;BME280;5513;50.580;8.818;2023-04-27T01:20:45;99242.66;;;7.68;100.00
10921;BME280;5513;50.580;8.818;2023-04-27T01:23:15;99245.28;;;7.68;100.00
10921;BME280;5513;50.580;8.818;2023-04-27T01:25:43;99251.41;;;7.51;100.00
10921;BME280;5513;50.580;8.818;2023-04-27T01:28:11;99248.38;;;7.41;100.00
10921;BME280;5513;50.580;8.818;2023-04-27T01:30:39;99248.16;;;7.46;100.00
10921;BME280;5513;50.580;8.818;2023-04-27T01:33:07;99258.50;;;7.32;100.00
10921;BME280;5513;50.580;8.818;2023-04-27T01:35:36;99247.56;;;7.22;100.00
10921;BME280;5513;50.580;8.818;2023-04-27T01:38:04;99246.88;;;7.18;100.00
10921;BME280;5513;50.580;8.818;2023-04-27T01:40:34;99247.88;;;7.16;100.00
10921;BME280;5513;50.580;8.818;2023-04-27T01:43:02;99249.31;;;7.04;100.00
10921;BME280;5513;50.580;8.818;2023-04-27T01:45:31;99249.31;;;7.04;100.00
10921;BME280;5513;50.580;8.818;2023-04-27T01:47:59;99257.22;;;7.04;100.00
10921;BME280;5513;50.580;8.818;2023-04-27T01:50:27;99252.69;;;6.89;100.00
10921;BME280;5513;50.580;8.818;2023-04-27T01:52:55;99259.31;;;6.98;100.00
10921;BME280;5513;50.580;8.818;2023-04-27T01:55:23;99256.19;;;6.89;100.00
10921;BME280;5513;50.580;8.818;2023-04-27T01:57:54;99256.53;;;7.01;100.00
10921;BME280;5513;50.580;8.818;2023-04-27T02:00:23;99266.44;;;6.96;100.00
10921;BME280;5513;50.580;8.818;2023-04-27T02:02:51;99265.22;;;6.84;100.00
10921;BME280;5513;50.580;8.818;2023-04-27T02:05:23;99265.72;;;6.73;100.00
10921;BME280;5513;50.580;8.818;2023-04-27T02:07:51;99268.00;;;6.81;100.00
10921;BME280;5513;50.580;8.818;2023-04-27T02:10:19;99274.47;;;6.74;100.00
10921;BME280;5513;50.580;8.818;2023-04-27T02:12:48;99281.38;;;6.76;100.00
10921;BME280;5513;50.580;8.818;2023-04-27T02:15:18;99277.53;;;6.65;100.00
10921;BME280;5513;50.580;8.818;2023-04-27T02:17:46;99280.09;;;6.66;100.00
10921;BME280;5513;50.580;8.818;2023-04-27T02:20:15;99277.94;;;6.74;100.00
10921;BME280;5513;50.580;8.818;2023-04-27T02:22:43;99282.34;;;6.74;100.00
10921;BME280;5513;50.580;8.818;2023-04-27T02:25:12;99277.16;;;6.72;100.00
10921;BME280;5513;50.580;8.818;2023-04-27T02:27:40;99278.31;;;6.67;100.00
10921;BME280;5513;50.580;8.818;2023-04-27T02:30:10;99285.22;;;6.69;100.00
10921;BME280;5513;50.580;8.818;2023-04-27T02:32:40;99288.13;;;6.63;100.00
10921;BME280;5513;50.580;8.818;2023-04-27T02:35:09;99282.09;;;6.61;100.00
10921;BME280;5513;50.580;8.818;2023-04-27T02:37:38;99285.41;;;6.65;100.00
10921;BME280;5513;50.580;8.818;2023-04-27T02:40:07;99287.00;;;6.69;100.00
10921;BME280;5513;50.580;8.818;2023-04-27T02:42:36;99290.63;;;6.66;100.00
10921;BME280;5513;50.580;8.818;2023-04-27T02:45:06;99275.88;;;6.62;100.00
10921;BME280;5513;50.580;8.818;2023-04-27T02:47:34;99285.56;;;6.62;100.00
10921;BME280;5513;50.580;8.818;2023-04-27T02:50:05;99293.88;;;6.71;100.00
10921;BME280;5513;50.580;8.818;2023-04-27T02:52:34;99291.75;;;6.79;100.00
10921;BME280;5513;50.580;8.818;2023-04-27T02:55:02;99289.41;;;6.73;100.00
10921;BME280;5513;50.580;8.818;2023-04-27T02:57:30;99273.41;;;6.78;100.00
10921;BME280;5513;50.580;8.818;2023-04-27T02:59:58;99285.63;;;6.60;100.00
10921;BME280;5513;50.580;8.818;2023-04-27T03:02:29;99283.94;;;6.59;100.00
10921;BME280;5513;50.580;8.818;2023-04-27T03:04:57;99289.31;;;6.56;100.00
10921;BME280;5513;50.580;8.818;2023-04-27T03:07:27;99296.78;;;6.46;100.00
10921;BME280;5513;50.580;8.818;2023-04-27T03:09:57;99289.81;;;6.45;100.00
10921;BME280;5513;50.580;8.818;2023-04-27T03:12:25;99296.00;;;6.44;100.00
10921;BME280;5513;50.580;8.818;2023-04-27T03:14:53;99289.19;;;6.40;100.00
10921;BME280;5513;50.580;8.818;2023-04-27T03:17:22;99290.97;;;6.40;100.00
10921;BME280;5513;50.580;8.818;2023-04-27T03:19:50;99285.97;;;6.34;100.00
10921;BME280;5513;50.580;8.818;2023-04-27T03:22:19;99283.06;;;6.40;100.00
10921;BME280;5513;50.580;8.818;2023-04-27T03:24:48;99277.47;;;6.27;100.00
10921;BME280;5513;50.580;8.818;2023-04-27T03:27:18;99276.00;;;6.21;100.00
10921;BME280;5513;50.580;8.818;2023-04-27T03:29:50;99276.63;;;6.26;100.00
10921;BME280;5513;50.580;8.818;2023-04-27T03:32:20;99289.31;;;6.17;100.00
10921;BME280;5513;50.580;8.818;2023-04-27T03:34:50;99293.72;;;6.16;100.00
10921;BME280;5513;50.580;8.818;2023-04-27T03:37:18;99293.88;;;6.13;100.00
10921;BME280;5513;50.580;8.818;2023-04-27T03:39:48;99290.59;;;6.08;100.00
10921;BME280;5513;50.580;8.818;2023-04-27T03:42:17;99295.78;;;6.10;100.00
10921;BME280;5513;50.580;8.818;2023-04-27T03:44:45;99299.22;;;6.12;100.00
10921;BME280;5513;50.580;8.818;2023-04-27T03:47:13;99290.56;;;5.88;100.00
10921;BME280;5513;50.580;8.818;2023-04-27T03:49:42;99295.59;;;5.94;100.00
10921;BME280;5513;50.580;8.818;2023-04-27T03:52:10;99294.56;;;5.76;100.00
10921;BME280;5513;50.580;8.818;2023-04-27T03:54:38;99293.25;;;5.86;100.00
10921;BME280;5513;50.580;8.818;2023-04-27T03:57:08;99297.97;;;5.78;100.00
10921;BME280;5513;50.580;8.818;2023-04-27T03:59:37;99298.50;;;5.86;100.00
10921;BME280;5513;50.580;8.818;2023-04-27T04:02:05;99289.19;;;5.79;100.00
10921;BME280;5513;50.580;8.818;2023-04-27T04:04:35;99294.03;;;5.88;100.00
10921;BME280;5513;50.580;8.818;2023-04-27T04:07:04;99290.09;;;6.00;100.00
10921;BME280;5513;50.580;8.818;2023-04-27T04:09:32;99296.09;;;5.82;100.00
10921;BME280;5513;50.580;8.818;2023-04-27T04:12:00;99294.38;;;5.81;100.00
10921;BME280;5513;50.580;8.818;2023-04-27T04:14:30;99300.34;;;5.84;100.00
10921;BME280;5513;50.580;8.818;2023-04-27T04:16:59;99302.56;;;5.95;100.00
10921;BME280;5513;50.580;8.818;2023-04-27T04:19:27;99297.66;;;5.86;100.00
10921;BME280;5513;50.580;8.818;2023-04-27T04:21:56;99298.28;;;5.92;100.00
10921;BME280;5513;50.580;8.818;2023-04-27T04:24:24;99313.28;;;5.90;100.00
10921;BME280;5513;50.580;8.818;2023-04-27T04:26:52;99311.28;;;5.95;100.00
10921;BME280;5513;50.580;8.818;2023-04-27T04:29:20;99306.25;;;5.91;100.00
10921;BME280;5513;50.580;8.818;2023-04-27T04:31:50;99306.88;;;5.96;100.00
10921;BME280;5513;50.580;8.818;2023-04-27T04:34:18;99303.31;;;5.98;100.00
10921;BME280;5513;50.580;8.818;2023-04-27T04:36:48;99304.31;;;6.15;100.00
10921;BME280;5513;50.580;8.818;2023-04-27T04:39:17;99301.25;;;6.05;100.00
10921;BME280;5513;50.580;8.818;2023-04-27T04:41:46;99308.81;;;6.13;100.00
10921;BME280;5513;50.580;8.818;2023-04-27T04:44:16;99311.28;;;6.16;100.00
10921;BME280;5513;50.580;8.818;2023-04-27T04:46:45;99306.88;;;6.16;100.00
10921;BME280;5513;50.580;8.818;2023-04-27T04:49:15;99304.00;;;6.02;100.00
10921;BME280;5513;50.580;8.818;2023-04-27T04:51:43;99313.31;;;5.89;100.00
10921;BME280;5513;50.580;8.818;2023-04-27T04:54:12;99308.28;;;6.05;100.00
10921;BME280;5513;50.580;8.818;2023-04-27T04:56:40;99308.28;;;6.05;100.00
10921;BME280;5513;50.580;8.818;2023-04-27T04:59:09;99304.47;;;6.12;100.00
10921;BME280;5513;50.580;8.818;2023-04-27T05:01:37;99314.72;;;6.18;100.00
10921;BME280;5513;50.580;8.818;2023-04-27T05:04:06;99315.13;;;6.09;100.00
10921;BME280;5513;50.580;8.818;2023-04-27T05:06:36;99319.25;;;6.14;100.00
10921;BME280;5513;50.580;8.818;2023-04-27T05:09:04;99329.84;;;6.13;100.00
10921;BME280;5513;50.580;8.818;2023-04-27T05:11:33;99329.44;;;6.22;100.00
10921;BME280;5513;50.580;8.818;2023-04-27T05:14:01;99322.94;;;6.10;100.00
10921;BME280;5513;50.580;8.818;2023-04-27T05:16:29;99326.81;;;6.22;100.00
10921;BME280;5513;50.580;8.818;2023-04-27T05:18:57;99334.47;;;6.26;100.00
10921;BME280;5513;50.580;8.818;2023-04-27T05:21:26;99327.91;;;6.37;100.00
10921;BME280;5513;50.580;8.818;2023-04-27T05:23:55;99327.78;;;6.40;100.00
10921;BME280;5513;50.580;8.818;2023-04-27T05:26:24;99336.13;;;6.49;100.00
10921;BME280;5513;50.580;8.818;2023-04-27T05:28:52;99335.78;;;6.57;100.00
10921;BME280;5513;50.580;8.818;2023-04-27T05:31:20;99335.31;;;6.68;100.00
10921;BME280;5513;50.580;8.818;2023-04-27T05:33:48;99329.97;;;6.69;100.00
10921;BME280;5513;50.580;8.818;2023-04-27T05:36:17;99331.44;;;6.75;100.00
10921;BME280;5513;50.580;8.818;2023-04-27T05:38:45;99335.66;;;6.79;100.00
10921;BME280;5513;50.580;8.818;2023-04-27T05:41:15;99335.09;;;6.91;100.00
10921;BME280;5513;50.580;8.818;2023-04-27T05:43:43;99343.50;;;6.99;100.00
10921;BME280;5513;50.580;8.818;2023-04-27T05:46:13;99333.75;;;7.01;100.00
10921;BME280;5513;50.580;8.818;2023-04-27T05:48:42;99337.66;;;7.11;100.00
10921;BME280;5513;50.580;8.818;2023-04-27T05:51:11;99333.53;;;7.06;100.00
10921;BME280;5513;50.580;8.818;2023-04-27T05:53:40;99349.81;;;7.14;100.00
10921;BME280;5513;50.580;8.818;2023-04-27T05:56:08;99344.34;;;7.18;100.00
10921;BME280;5513;50.580;8.818;2023-04-27T05:58:39;99338.19;;;7.37;100.00
10921;BME280;5513;50.580;8.818;2023-04-27T06:01:07;99338.97;;;7.39;100.00
10921;BME280;5513;50.580;8.818;2023-04-27T06:03:36;99346.50;;;7.46;100.00
10921;BME280;5513;50.580;8.818;2023-04-27T06:06:05;99346.47;;;7.65;100.00
10921;BME280;5513;50.580;8.818;2023-04-27T06:08:33;99350.34;;;7.58;100.00
10921;BME280;5513;50.580;8.818;2023-04-27T06:11:03;99343.69;;;7.68;100.00
10921;BME280;5513;50.580;8.818;2023-04-27T06:13:31;99348.81;;;7.89;100.00
10921;BME280;5513;50.580;8.818;2023-04-27T06:16:01;99357.00;;;8.01;100.00
10921;BME280;5513;50.580;8.818;2023-04-27T06:18:30;99352.78;;;8.15;100.00
10921;BME280;5513;50.580;8.818;2023-04-27T06:20:59;99358.16;;;8.13;100.00
10921;BME280;5513;50.580;8.818;2023-04-27T06:23:28;99357.03;;;8.17;100.00
10921;BME280;5513;50.580;8.818;2023-04-27T06:25:56;99367.84;;;8.13;100.00
10921;BME280;5513;50.580;8.818;2023-04-27T06:28:25;99370.31;;;8.16;100.00
10921;BME280;5513;50.580;8.818;2023-04-27T06:30:53;99372.41;;;8.26;99.27
10921;BME280;5513;50.580;8.818;2023-04-27T06:33:23;99370.03;;;8.22;98.88
10921;BME280;5513;50.580;8.818;2023-04-27T06:35:52;99376.75;;;8.27;98.42
10921;BME280;5513;50.580;8.818;2023-04-27T06:38:20;99374.03;;;8.29;96.62
10921;BME280;5513;50.580;8.818;2023-04-27T06:40:51;99383.59;;;8.31;95.94
10921;BME280;5513;50.580;8.818;2023-04-27T06:43:19;99380.03;;;8.32;95.49
10921;BME280;5513;50.580;8.818;2023-04-27T06:45:48;99386.31;;;8.47;96.41
10921;BME280;5513;50.580;8.818;2023-04-27T06:48:16;99382.22;;;8.59;97.52
10921;BME280;5513;50.580;8.818;2023-04-27T06:50:46;99382.88;;;8.63;98.25
10921;BME280;5513;50.580;8.818;2023-04-27T06:53:14;99380.25;;;8.63;95.75
10921;BME280;5513;50.580;8.818;2023-04-27T06:55:43;99386.84;;;8.71;96.41
10921;BME280;5513;50.580;8.818;2023-04-27T06:58:14;99383.50;;;9.01;95.93
10921;BME280;5513;50.580;8.818;2023-04-27T07:00:42;99371.53;;;8.94;96.22
10921;BME280;5513;50.580;8.818;2023-04-27T07:03:10;99383.03;;;8.93;97.13
10921;BME280;5513;50.580;8.818;2023-04-27T07:05:40;99388.25;;;8.94;95.74
10921;BME280;5513;50.580;8.818;2023-04-27T07:08:10;99383.50;;;9.01;96.37
10921;BME280;5513;50.580;8.818;2023-04-27T07:10:39;99384.44;;;9.15;96.08
10921;BME280;5513;50.580;8.818;2023-04-27T07:13:07;99370.03;;;9.21;95.81
10921;BME280;5513;50.580;8.818;2023-04-27T07:15:37;99381.66;;;9.50;92.79
10921;BME280;5513;50.580;8.818;2023-04-27T07:18:05;99382.06;;;9.42;89.75
10921;BME280;5513;50.580;8.818;2023-04-27T07:20:36;99377.19;;;9.35;89.79
10921;BME280;5513;50.580;8.818;2023-04-27T07:23:06;99385.97;;;9.35;90.88
10921;BME280;5513;50.580;8.818;2023-04-27T07:25:36;99382.41;;;9.52;90.44
10921;BME280;5513;50.580;8.818;2023-04-27T07:28:08;99378.63;;;9.72;90.16
10921;BME280;5513;50.580;8.818;2023-04-27T07:30:36;99382.81;;;9.76;79.39
10921;BME280;5513;50.580;8.818;2023-04-27T07:33:04;99378.91;;;9.67;78.89
10921;BME280;5513;50.580;8.818;2023-04-27T07:35:33;99379.91;;;9.65;81.56
10921;BME280;5513;50.580;8.818;2023-04-27T07:38:01;99384.66;;;9.90;77.87
10921;BME280;5513;50.580;8.818;2023-04-27T07:40:30;99385.84;;;9.84;76.31
10921;BME280;5513;50.580;8.818;2023-04-27T07:42:59;99386.91;;;9.82;76.47
10921;BME280;5513;50.580;8.818;2023-04-27T07:45:28;99381.84;;;9.93;77.21
10921;BME280;5513;50.580;8.818;2023-04-27T07:47:59;99382.38;;;9.84;78.48
10921;BME280;5513;50.580;8.818;2023-04-27T07:50:28;99376.28;;;9.97;76.59
10921;BME280;5513;50.580;8.818;2023-04-27T07:52:57;99371.72;;;10.15;73.97
10921;BME280;5513;50.580;8.818;2023-04-27T07:55:25;99371.34;;;10.21;76.60
10921;BME280;5513;50.580;8.818;2023-04-27T07:57:54;99379.72;;;10.29;75.88
10921;BME280;5513;50.580;8.818;2023-04-27T08:00:26;99379.47;;;10.34;75.75
10921;BME280;5513;50.580;8.818;2023-04-27T08:02:54;99372.59;;;10.46;77.12
10921;BME280;5513;50.580;8.818;2023-04-27T08:05:23;99368.69;;;10.51;78.81
10921;BME280;5513;50.580;8.818;2023-04-27T08:07:52;99372.53;;;10.62;77.62
10921;BME280;5513;50.580;8.818;2023-04-27T08:10:20;99359.44;;;10.87;77.60
10921;BME280;5513;50.580;8.818;2023-04-27T08:12:49;99367.19;;;11.18;71.13
10921;BME280;5513;50.580;8.818;2023-04-27T08:15:17;99358.63;;;11.42;70.21
10921;BME280;5513;50.580;8.818;2023-04-27T08:17:47;99354.91;;;11.44;69.57
10921;BME280;5513;50.580;8.818;2023-04-27T08:20:15;99363.53;;;11.89;62.78
10921;BME280;5513;50.580;8.818;2023-04-27T08:22:44;99368.13;;;12.00;60.64
10921;BME280;5513;50.580;8.818;2023-04-27T08:25:12;99362.56;;;11.90;59.47
10921;BME280;5513;50.580;8.818;2023-04-27T08:27:41;99354.44;;;11.79;59.82
10921;BME280;5513;50.580;8.818;2023-04-27T08:30:10;99355.25;;;11.94;61.35
10921;BME280;5513;50.580;8.818;2023-04-27T08:32:39;99362.78;;;11.87;61.86
10921;BME280;5513;50.580;8.818;2023-04-27T08:35:09;99364.13;;;11.80;58.98
10921;BME280;5513;50.580;8.818;2023-04-27T08:37:37;99362.16;;;11.96;58.09
10921;BME280;5513;50.580;8.818;2023-04-27T08:40:07;99370.56;;;12.03;57.66
10921;BME280;5513;50.580;8.818;2023-04-27T08:42:36;99358.25;;;12.15;57.39
10921;BME280;5513;50.580;8.818;2023-04-27T08:45:06;99360.97;;;11.88;56.25
10921;BME280;5513;50.580;8.818;2023-04-27T08:47:37;99361.50;;;11.93;56.53
10921;BME280;5513;50.580;8.818;2023-04-27T08:50:12;99359.84;;;12.04;55.28
10921;BME280;5513;50.580;8.818;2023-04-27T08:52:43;99358.09;;;12.18;54.86
10921;BME280;5513;50.580;8.818;2023-04-27T08:55:11;99358.59;;;12.23;55.41
10921;BME280;5513;50.580;8.818;2023-04-27T08:57:53;99350.22;;;12.16;54.32
10921;BME280;5513;50.580;8.818;2023-04-27T09:00:23;99349.69;;;12.24;54.59
10921;BME280;5513;50.580;8.818;2023-04-27T09:02:52;99348.31;;;12.44;53.83
10921;BME280;5513;50.580;8.818;2023-04-27T09:05:22;99360.34;;;12.62;53.18
10921;BME280;5513;50.580;8.818;2023-04-27T09:07:57;99352.91;;;12.67;52.25
10921;BME280;5513;50.580;8.818;2023-04-27T09:10:26;99346.22;;;12.61;51.44
10921;BME280;5513;50.580;8.818;2023-04-27T09:12:56;99344.50;;;12.86;51.37
10921;BME280;5513;50.580;8.818;2023-04-27T09:15:26;99344.97;;;13.16;51.33
10921;BME280;5513;50.580;8.818;2023-04-27T09:17:55;99346.78;;;13.16;51.52
10921;BME280;5513;50.580;8.818;2023-04-27T09:20:26;99345.72;;;13.31;49.61
10921;BME280;5513;50.580;8.818;2023-04-27T09:22:54;99342.91;;;13.45;47.62
10921;BME280;5513;50.580;8.818;2023-04-27T09:25:25;99336.84;;;13.67;47.11
10921;BME280;5513;50.580;8.818;2023-04-27T09:27:55;99342.03;;;13.82;46.96
10921;BME280;5513;50.580;8.818;2023-04-27T09:30:24;99337.78;;;13.55;48.26
10921;BME280;5513;50.580;8.818;2023-04-27T09:32:53;99335.44;;;13.74;48.82
10921;BME280;5513;50.580;8.818;2023-04-27T09:35:26;99323.47;;;14.04;47.13
10921;BME280;5513;50.580;8.818;2023-04-27T09:37:55;99330.78;;;13.89;46.73
10921;BME280;5513;50.580;8.818;2023-04-27T09:40:25;99329.63;;;14.04;46.11
10921;BME280;5513;50.580;8.818;2023-04-27T09:42:56;99329.88;;;13.78;47.36
10921;BME280;5513;50.580;8.818;2023-04-27T09:45:26;99328.50;;;14.20;46.60
10921;BME280;5513;50.580;8.818;2023-04-27T09:47:55;99330.25;;;14.08;46.78
10921;BME280;5513;50.580;8.818;2023-04-27T09:50:26;99330.78;;;14.24;47.16
10921;BME280;5513;50.580;8.818;2023-04-27T09:52:55;99325.97;;;14.29;46.32
10921;BME280;5513;50.580;8.818;2023-04-27T09:55:27;99320.97;;;14.25;46.78
10921;BME280;5513;50.580;8.818;2023-04-27T09:58:08;99315.88;;;14.68;45.83
10921;BME280;5513;50.580;8.818;2023-04-27T10:00:50;99313.78;;;15.05;44.77
10921;BME280;5513;50.580;8.818;2023-04-27T10:03:30;99300.34;;;14.73;45.57
10921;BME280;5513;50.580;8.818;2023-04-27T10:09:03;99304.59;;;14.98;45.00
10921;BME280;5513;50.580;8.818;2023-04-27T10:11:36;99304.09;;;15.04;45.06
10921;BME280;5513;50.580;8.818;2023-04-27T10:14:06;99298.25;;;15.22;44.29
10921;BME280;5513;50.580;8.818;2023-04-27T10:16:43;99292.47;;;14.49;47.64
10921;BME280;5513;50.580;8.818;2023-04-27T10:19:15;99298.28;;;14.08;46.60
10921;BME280;5513;50.580;8.818;2023-04-27T10:21:53;99299.63;;;14.82;48.03
10921;BME280;5513;50.580;8.818;2023-04-27T10:24:48;99285.59;;;14.69;46.84
10921;BME280;5513;50.580;8.818;2023-04-27T10:27:18;99291.19;;;15.32;44.36
10921;BME280;5513;50.580;8.818;2023-04-27T10:29:50;99293.47;;;15.48;44.09
10921;BME280;5513;50.580;8.818;2023-04-27T10:32:22;99288.22;;;15.68;43.22
10921;BME280;5513;50.580;8.818;2023-04-27T10:34:51;99280.13;;;14.71;44.20
10921;BME280;5513;50.580;8.818;2023-04-27T10:37:38;99275.28;;;14.87;45.70
10921;BME280;5513;50.580;8.818;2023-04-27T10:40:10;99282.66;;;14.95;46.44
10921;BME280;5513;50.580;8.818;2023-04-27T10:42:40;99287.25;;;15.04;45.53
10921;BME280;5513;50.580;8.818;2023-04-27T10:45:09;99281.84;;;15.37;45.53
10921;BME280;5513;50.580;8.818;2023-04-27T10:47:41;99280.41;;;15.33;45.31
10921;BME280;5513;50.580;8.818;2023-04-27T10:50:14;99276.00;;;16.08;43.41
10921;BME280;5513;50.580;8.818;2023-04-27T10:52:45;99287.66;;;15.86;43.45
10921;BME280;5513;50.580;8.818;2023-04-27T10:55:16;99287.75;;;14.53;46.17
10921;BME280;5513;50.580;8.818;2023-04-27T10:57:46;99284.44;;;14.38;48.20
10921;BME280;5513;50.580;8.818;2023-04-27T11:00:21;99286.28;;;14.94;45.45
10921;BME280;5513;50.580;8.818;2023-04-27T11:02:51;99281.78;;;14.38;45.69
10921;BME280;5513;50.580;8.818;2023-04-27T11:05:22;99275.13;;;14.66;45.50
10921;BME280;5513;50.580;8.818;2023-04-27T11:07:51;99270.75;;;15.53;44.69
10921;BME280;5513;50.580;8.818;2023-04-27T11:10:20;99269.75;;;16.18;43.50
10921;BME280;5513;50.580;8.818;2023-04-27T11:12:49;99263.47;;;16.29;43.22
10921;BME280;5513;50.580;8.818;2023-04-27T11:15:18;99268.31;;;16.35;44.64
10921;BME280;5513;50.580;8.818;2023-04-27T11:17:46;99260.88;;;15.76;46.83
10921;BME280;5513;50.580;8.818;2023-04-27T11:20:23;99262.44;;;16.41;44.82
10921;BME280;5513;50.580;8.818;2023-04-27T11:22:52;99263.47;;;16.71;43.94
10921;BME280;5513;50.580;8.818;2023-04-27T11:25:27;99264.84;;;17.15;43.65
10921;BME280;5513;50.580;8.818;2023-04-27T11:27:57;99260.38;;;17.25;43.48
10921;BME280;5513;50.580;8.818;2023-04-27T11:30:25;99265.34;;;17.49;41.97
10921;BME280;5513;50.580;8.818;2023-04-27T11:32:54;99245.31;;;17.34;43.13
10921;BME280;5513;50.580;8.818;2023-04-27T11:35:31;99258.09;;;17.11;42.79
10921;BME280;5513;50.580;8.818;2023-04-27T11:38:02;99263.38;;;17.61;40.72
10921;BME280;5513;50.580;8.818;2023-04-27T11:40:32;99251.00;;;17.69;40.15
10921;BME280;5513;50.580;8.818;2023-04-27T11:43:01;99245.31;;;17.63;41.36
10921;BME280;5513;50.580;8.818;2023-04-27T11:45:30;99243.47;;;18.21;39.97
10921;BME280;5513;50.580;8.818;2023-04-27T11:47:58;99242.34;;;17.66;40.42
10921;BME280;5513;50.580;8.818;2023-04-27T11:50:27;99251.13;;;17.49;40.85
10921;BME280;5513;50.580;8.818;2023-04-27T11:52:59;99253.22;;;18.03;39.45
10921;BME280;5513;50.580;8.818;2023-04-27T11:55:27;99246.06;;;17.84;39.15
10921;BME280;5513;50.580;8.818;2023-04-27T11:57:57;99238.50;;;18.36;38.52
10921;BME280;5513;50.580;8.818;2023-04-27T12:00:27;99240.63;;;18.23;38.33
10921;BME280;5513;50.580;8.818;2023-04-27T12:02:56;99230.94;;;18.02;40.47
10921;BME280;5513;50.580;8.818;2023-04-27T12:05:25;99245.22;;;17.74;39.61
10921;BME280;5513;50.580;8.818;2023-04-27T12:07:54;99237.88;;;17.66;39.95
10921;BME280;5513;50.580;8.818;2023-04-27T12:10:23;99236.75;;;17.59;40.83
10921;BME280;5513;50.580;8.818;2023-04-27T12:12:51;99243.22;;;17.57;41.46
10921;BME280;5513;50.580;8.818;2023-04-27T12:15:22;99240.00;;;17.92;41.22
10921;BME280;5513;50.580;8.818;2023-04-27T12:17:50;99234.91;;;18.08;42.57
10921;BME280;5513;50.580;8.818;2023-04-27T12:20:19;99229.69;;;18.53;41.76
10921;BME280;5513;50.580;8.818;2023-04-27T12:22:47;99228.25;;;18.12;40.72
10921;BME280;5513;50.580;8.818;2023-04-27T12:25:16;99223.56;;;18.14;42.14
10921;BME280;5513;50.580;8.818;2023-04-27T12:27:45;99227.66;;;17.12;43.31
10921;BME280;5513;50.580;8.818;2023-04-27T12:30:14;99221.00;;;16.97;43.97
10921;BME280;5513;50.580;8.818;2023-04-27T12:32:44;99222.81;;;16.86;44.28
10921;BME280;5513;50.580;8.818;2023-04-27T12:35:12;99223.63;;;16.77;44.82
10921;BME280;5513;50.580;8.818;2023-04-27T12:37:41;99221.03;;;17.06;44.00
10921;BME280;5513;50.580;8.818;2023-04-27T12:40:10;99217.03;;;17.80;44.16
10921;BME280;5513;50.580;8.818;2023-04-27T12:42:40;99208.41;;;18.42;42.96
10921;BME280;5513;50.580;8.818;2023-04-27T12:45:09;99212.72;;;18.25;41.87
10921;BME280;5513;50.580;8.818;2023-04-27T12:47:37;99208.13;;;18.45;42.94
10921;BME280;5513;50.580;8.818;2023-04-27T12:50:13;99201.97;;;18.72;42.25
10921;BME280;5513;50.580;8.818;2023-04-27T12:52:41;99201.25;;;18.70;40.03
10921;BME280;5513;50.580;8.818;2023-04-27T12:55:09;99204.19;;;19.04;40.04
10921;BME280;5513;50.580;8.818;2023-04-27T12:57:57;99205.56;;;19.08;39.02
10921;BME280;5513;50.580;8.818;2023-04-27T13:00:27;99209.44;;;19.24;38.88
10921;BME280;5513;50.580;8.818;2023-04-27T13:02:57;99203.97;;;19.33;39.13
10921;BME280;5513;50.580;8.818;2023-04-27T13:05:27;99201.75;;;19.11;39.25
10921;BME280;5513;50.580;8.818;2023-04-27T13:07:58;99199.16;;;19.55;37.09
10921;BME280;5513;50.580;8.818;2023-04-27T13:10:27;99201.84;;;19.72;36.46
10921;BME280;5513;50.580;8.818;2023-04-27T13:12:56;99198.78;;;20.37;35.60
10921;BME280;5513;50.580;8.818;2023-04-27T13:15:25;99197.94;;;21.21;35.25
10921;BME280;5513;50.580;8.818;2023-04-27T13:17:54;99188.41;;;20.76;35.72
10921;BME280;5513;50.580;8.818;2023-04-27T13:20:24;99183.53;;;20.80;36.88
10921;BME280;5513;50.580;8.818;2023-04-27T13:22:54;99184.81;;;20.08;38.82
10921;BME280;5513;50.580;8.818;2023-04-27T13:25:23;99184.72;;;19.73;39.86
10921;BME280;5513;50.580;8.818;2023-04-27T13:27:51;99188.66;;;19.61;39.62
10921;BME280;5513;50.580;8.818;2023-04-27T13:30:20;99188.09;;;18.77;39.91